Terminal Aerodrome Forecast
Issued by NWS

Home | Current Version | Previous Version | Text Only | Print | Product List | Glossary On
Versions: 1 2 3 4 5 6 7 8 9 10 11 12 13 14
000
FTUS44 KEPZ 231100
TAFLRU
TAF
KLRU 231128Z 2312/2412 25010KT P6SM SCT100 BKN200
     FM231800 24018G27KT P6SM SCT100
     FM240300 27007KT P6SM FEW250=

USA.gov is the U.S. government's official web portal to all federal, state and local government web resources and services.